ICAO code: LHPR | IATA code: QGY | SITA: QGYAPXH | AFTN: LHPRZPZX

Időjárási adatok

METAR LHPR 300015Z AUTO 32005KT 290V010 CAVOK 24/16 Q1012=
TAF LHPR 292300Z NIL=
Nem volt érdemleges időjárási jelenség az elmúlt órában
2022-06-30 00:10:00 UTC
Hőmérséklet
24.4 °C
 
Harmatpont
16.1 °C
 
Rel. páratartalom
60%
 
QNH
1012.2 hPa
 
Szélsebesség
2.1 m/s
Max
4.7 m/s
Szélirány
330°
 
Csapadék (1 óra)
0.0 mm
 
Látótávolság
20000 m
 
RVR
>1500 m RWY29
 
1. felhőréteg mennyisége
7 octa
 
1. felhőréteg alapja
4550 m